Terminal Aerodrome Forecast
Issued by NWS

Home | Current Version | Previous Version | Text Only | Print | Product List | Glossary On
Versions: 1 2 3 4 5 6 7 8 9 10 11 12 13 14 15 16 17 18 19 20 21 22 23 24 25 26 27 28 29 30 31 32 33 34 35 36 37 38 39 40 41 42 43 44 45 46 47 48 49 50
000
FTUS45 KVEF 302034 AAA
TAFLAS
TAF AMD
KLAS 302034Z 3021/3118 23028G42KT 6SM BLDU FEW100 SCT250
     FM302230 33035G50KT 5SM BLDU VCSH FEW100 SCT150
     FM310300 33027G38KT P6SM SCT150
     FM310900 34020G28KT P6SM SCT100 BKN150=

USA.gov is the U.S. government's official web portal to all federal, state and local government web resources and services.